createdAt,value
2018-09-03T00:00:37.157Z,15.80
2018-09-03T00:03:16.732Z,15.80
2018-09-03T00:05:50.617Z,15.80
2018-09-03T00:08:25.179Z,15.80
2018-09-03T00:10:58.984Z,15.80
2018-09-03T00:13:33.576Z,15.80
2018-09-03T00:16:08.189Z,15.80
2018-09-03T00:18:41.971Z,15.80
2018-09-03T00:21:15.730Z,15.80
2018-09-03T00:23:49.507Z,15.80
2018-09-03T00:26:23.392Z,15.80
2018-09-03T00:28:57.096Z,15.80
2018-09-03T00:31:30.901Z,15.80
2018-09-03T00:51:58.643Z,15.90
2018-09-03T00:54:32.459Z,16.00
2018-09-03T01:00:07.625Z,15.90
2018-09-03T01:05:40.983Z,15.90
2018-09-03T01:08:14.792Z,15.90
2018-09-03T01:10:48.660Z,15.80
2018-09-03T01:16:22.102Z,15.90
2018-09-03T01:18:56.727Z,15.80
2018-09-03T01:21:30.436Z,15.80
2018-09-03T01:30:02.376Z,15.80
2018-09-03T01:35:36.633Z,15.80
2018-09-03T01:38:10.433Z,15.70
2018-09-03T01:43:43.168Z,15.80
2018-09-03T01:46:17.766Z,15.80
2018-09-03T01:48:59.384Z,15.80
2018-09-03T01:51:33.219Z,15.70
2018-09-03T01:54:07.003Z,15.70
2018-09-03T01:56:40.760Z,15.80
2018-09-03T01:59:14.577Z,15.80
2018-09-03T02:01:48.165Z,15.80
2018-09-03T02:07:22.265Z,15.80
2018-09-03T02:09:56.043Z,15.80
2018-09-03T02:12:29.858Z,15.80
2018-09-03T02:15:03.621Z,15.80
2018-09-03T02:17:37.420Z,15.70
2018-09-03T02:20:11.016Z,15.70
2018-09-03T02:25:44.720Z,15.80
2018-09-03T02:31:18.296Z,15.90
2018-09-03T02:33:52.072Z,15.80
2018-09-03T02:36:25.992Z,15.80
2018-09-03T02:38:59.724Z,15.70
2018-09-03T02:44:33.395Z,15.90
2018-09-03T02:47:07.095Z,15.90
2018-09-03T02:49:41.622Z,15.90
2018-09-03T02:52:15.469Z,15.90
2018-09-03T02:57:48.591Z,15.90
2018-09-03T03:00:22.422Z,15.90
2018-09-03T03:02:56.136Z,15.90
2018-09-03T03:05:29.941Z,15.90
2018-09-03T03:08:04.500Z,15.90
2018-09-03T03:10:38.143Z,15.80
2018-09-03T03:13:12.734Z,15.80
2018-09-03T03:15:46.434Z,15.80
2018-09-03T03:21:18.983Z,15.80
2018-09-03T03:23:53.668Z,15.80
2018-09-03T03:26:27.315Z,15.80
2018-09-03T03:29:01.202Z,15.70
2018-09-03T03:31:34.833Z,15.70
2018-09-03T03:34:08.739Z,15.70
2018-09-03T03:36:42.601Z,15.70
2018-09-03T03:39:16.383Z,15.70
2018-09-03T03:41:50.233Z,15.70
2018-09-03T03:44:23.992Z,15.80
2018-09-03T03:46:57.850Z,15.70
2018-09-03T03:49:32.387Z,15.70
2018-09-03T03:52:06.281Z,15.60
2018-09-03T03:54:40.036Z,15.80
2018-09-03T04:03:13.747Z,15.90
2018-09-03T04:05:48.213Z,15.90
2018-09-03T04:14:26.724Z,15.90
2018-09-03T04:20:00.192Z,15.80
2018-09-03T04:22:34.584Z,15.80
2018-09-03T04:25:08.424Z,15.80
2018-09-03T04:30:42.363Z,15.90
2018-09-03T04:33:22.867Z,15.90
2018-09-03T04:35:56.656Z,15.90
2018-09-03T04:38:30.553Z,15.90
2018-09-03T04:41:04.413Z,15.90
2018-09-03T04:52:38.296Z,16.00
2018-09-03T04:55:35.975Z,16.00
2018-09-03T04:58:09.682Z,16.00
2018-09-03T05:00:43.799Z,16.00
2018-09-03T05:06:16.427Z,16.20
2018-09-03T05:08:51.551Z,16.30
2018-09-03T05:14:24.568Z,16.40
2018-09-03T05:16:58.410Z,16.50
2018-09-03T05:19:32.133Z,16.50
2018-09-03T05:22:05.991Z,16.60
2018-09-03T05:24:41.672Z,16.70
2018-09-03T05:27:25.866Z,16.60
2018-09-03T05:30:03.363Z,16.60
2018-09-03T05:32:37.129Z,16.50
2018-09-03T05:41:09.863Z,16.40
2018-09-03T05:43:45.703Z,16.40
2018-09-03T05:46:19.527Z,16.40
2018-09-03T05:48:53.271Z,16.40
2018-09-03T05:54:26.779Z,16.40
2018-09-03T05:59:59.929Z,16.40
2018-09-03T06:02:33.698Z,16.40
2018-09-03T06:14:07.505Z,16.70
2018-09-03T06:16:41.161Z,16.60
2018-09-03T06:22:14.030Z,16.90
2018-09-03T06:24:48.633Z,16.80
2018-09-03T06:27:22.372Z,16.80
2018-09-03T06:29:56.060Z,16.90
2018-09-03T06:32:29.916Z,16.90
2018-09-03T06:35:06.384Z,16.90
2018-09-03T06:37:40.183Z,16.90
2018-09-03T06:43:13.690Z,17.00
2018-09-03T06:45:48.152Z,17.00
2018-09-03T06:48:22.161Z,16.90
2018-09-03T06:50:56.197Z,17.10
2018-09-03T06:56:29.271Z,17.30
2018-09-03T07:02:03.384Z,17.70
2018-09-03T07:07:36.804Z,17.70
2018-09-03T07:10:11.298Z,17.60
2018-09-03T07:12:45.032Z,17.50
2018-09-03T07:15:18.853Z,17.50
2018-09-03T07:23:54.176Z,17.50
2018-09-03T07:26:28.898Z,17.50
2018-09-03T07:38:02.060Z,17.50
2018-09-03T07:40:36.564Z,17.50
2018-09-03T07:46:09.484Z,17.50
2018-09-03T07:48:43.353Z,17.50
2018-09-03T07:51:17.181Z,17.50
2018-09-03T07:56:51.447Z,17.30
2018-09-03T07:59:26.060Z,17.20
2018-09-03T08:02:01.824Z,17.20
2018-09-03T08:04:35.641Z,17.20
2018-09-03T08:07:09.434Z,17.20
2018-09-03T08:09:43.259Z,17.30
2018-09-03T08:12:17.210Z,17.30
2018-09-03T08:14:51.682Z,17.40
2018-09-03T08:17:26.309Z,17.30
2018-09-03T08:20:00.760Z,17.20
2018-09-03T08:22:34.476Z,17.20
2018-09-03T08:25:08.277Z,17.20
2018-09-03T08:27:42.016Z,17.20
2018-09-03T08:33:15.619Z,17.20
2018-09-03T08:35:50.272Z,17.20
2018-09-03T08:41:23.955Z,17.20
2018-09-03T08:43:57.659Z,17.20
2018-09-03T08:49:31.970Z,17.20
2018-09-03T08:52:06.476Z,17.20
2018-09-03T08:54:40.256Z,17.20
2018-09-03T08:57:14.029Z,17.20
2018-09-03T08:59:48.828Z,17.20
2018-09-03T09:05:21.680Z,17.20
2018-09-03T09:07:55.552Z,17.20
2018-09-03T09:10:30.332Z,17.10
2018-09-03T09:13:04.227Z,17.10
2018-09-03T09:15:38.808Z,17.10
2018-09-03T09:18:12.628Z,17.10
2018-09-03T09:20:46.424Z,17.20
2018-09-03T09:26:19.920Z,17.10
2018-09-03T09:28:53.748Z,17.20
2018-09-03T09:31:27.508Z,17.20
2018-09-03T09:37:00.315Z,17.30
2018-09-03T09:39:34.218Z,17.30
2018-09-03T09:45:07.743Z,17.20
2018-09-03T09:47:42.383Z,17.20
2018-09-03T09:50:18.096Z,17.20
2018-09-03T09:52:51.760Z,17.20
2018-09-03T09:55:37.892Z,17.20
2018-09-03T09:58:11.779Z,17.30
2018-09-03T10:00:45.581Z,17.40
2018-09-03T10:03:20.132Z,17.50
2018-09-03T10:05:53.855Z,17.50
2018-09-03T10:11:27.067Z,17.50
2018-09-03T10:14:01.602Z,17.60
2018-09-03T10:16:35.420Z,17.60
2018-09-03T10:19:09.222Z,17.70
2018-09-03T10:21:43.165Z,17.70
2018-09-03T10:24:17.724Z,18.00
2018-09-03T10:26:51.368Z,18.00
2018-09-03T10:29:25.157Z,18.10
2018-09-03T10:31:59.771Z,18.40
2018-09-03T10:34:34.195Z,18.30
2018-09-03T10:37:07.957Z,18.30
2018-09-03T10:39:41.716Z,18.30
2018-09-03T10:42:15.532Z,18.40
2018-09-03T10:44:49.341Z,18.40
2018-09-03T10:47:23.978Z,18.30
2018-09-03T10:55:56.427Z,18.20
2018-09-03T10:58:31.044Z,18.40
2018-09-03T11:01:04.968Z,18.30
2018-09-03T11:06:23.664Z,18.50
2018-09-03T11:08:58.232Z,18.50
2018-09-03T11:17:31.231Z,19.30
2018-09-03T11:23:11.371Z,19.30
2018-09-03T11:25:45.170Z,19.60
2018-09-03T11:31:19.403Z,20.00
2018-09-03T11:36:32.544Z,20.30
2018-09-03T11:42:08.705Z,20.50
2018-09-03T11:47:42.969Z,20.30
2018-09-03T11:50:19.379Z,20.20
2018-09-03T11:53:00.139Z,20.20
2018-09-03T11:55:36.010Z,20.50
2018-09-03T12:00:54.599Z,20.30
2018-09-03T12:03:29.965Z,20.90
2018-09-03T12:06:03.735Z,20.80
2018-09-03T12:14:27.042Z,20.80
2018-09-03T12:19:54.206Z,20.90
2018-09-03T12:25:28.236Z,21.20
2018-09-03T12:31:01.761Z,21.30
2018-09-03T12:36:34.934Z,21.60
2018-09-03T12:42:08.541Z,21.60
2018-09-03T12:44:42.341Z,21.50
2018-09-03T12:47:16.781Z,21.50
2018-09-03T12:49:50.718Z,21.50
2018-09-03T12:52:24.404Z,21.40
2018-09-03T12:58:11.052Z,21.20
2018-09-03T13:06:34.019Z,21.20
2018-09-03T13:12:06.809Z,21.40
2018-09-03T13:14:40.511Z,21.30
2018-09-03T13:17:14.225Z,21.40
2018-09-03T13:19:47.883Z,21.40
2018-09-03T13:25:37.939Z,21.30
2018-09-03T13:28:11.826Z,21.50
2018-09-03T13:30:45.716Z,21.70
2018-09-03T13:33:19.514Z,21.70
2018-09-03T13:35:53.934Z,21.80
2018-09-03T13:38:28.559Z,21.70
2018-09-03T13:41:07.109Z,21.70
2018-09-03T13:49:40.740Z,21.60
2018-09-03T13:55:13.432Z,21.60
2018-09-03T14:00:47.016Z,21.50
2018-09-03T14:03:21.617Z,21.10
2018-09-03T14:05:56.159Z,20.90
2018-09-03T14:08:29.842Z,20.90
2018-09-03T14:11:03.559Z,20.80
2018-09-03T14:13:37.365Z,20.80
2018-09-03T14:16:11.073Z,20.80
2018-09-03T14:18:45.016Z,20.90
2018-09-03T14:21:18.844Z,20.90
2018-09-03T14:23:52.773Z,21.00
2018-09-03T14:26:26.599Z,20.90
2018-09-03T14:29:01.020Z,21.20
2018-09-03T14:31:34.811Z,21.20
2018-09-03T14:34:08.568Z,21.20
2018-09-03T14:39:42.280Z,21.30
2018-09-03T14:42:16.131Z,21.40
2018-09-03T14:44:49.982Z,21.30
2018-09-03T14:50:23.395Z,21.40
2018-09-03T14:52:57.075Z,21.40
2018-09-03T14:55:34.836Z,21.50
2018-09-03T14:58:08.602Z,21.60
2018-09-03T15:00:42.335Z,21.60
2018-09-03T15:03:17.015Z,21.90
2018-09-03T15:05:50.820Z,21.90
2018-09-03T15:08:25.474Z,21.80
2018-09-03T15:13:58.537Z,21.90
2018-09-03T15:16:37.112Z,22.10
2018-09-03T15:19:10.716Z,22.30
2018-09-03T15:21:45.201Z,22.20
2018-09-03T15:27:18.544Z,22.30
2018-09-03T15:32:52.184Z,22.20
2018-09-03T15:35:25.976Z,22.10
2018-09-03T15:38:00.676Z,22.10
2018-09-03T15:40:34.339Z,22.00
2018-09-03T15:43:11.900Z,21.90
2018-09-03T15:45:45.613Z,21.80
2018-09-03T15:48:19.407Z,21.70
2018-09-03T15:50:53.188Z,21.70
2018-09-03T15:53:27.116Z,21.70
2018-09-03T15:56:01.644Z,21.70
2018-09-03T15:58:35.403Z,21.70
2018-09-03T16:04:09.650Z,21.70
2018-09-03T16:06:43.538Z,21.70
2018-09-03T16:12:17.062Z,21.70
2018-09-03T16:17:50.757Z,21.60
2018-09-03T16:29:23.711Z,21.40
2018-09-03T16:31:57.380Z,21.30
2018-09-03T16:34:31.097Z,21.20
2018-09-03T16:37:04.769Z,21.20
2018-09-03T16:39:38.616Z,21.30
2018-09-03T16:42:12.273Z,21.30
2018-09-03T16:44:46.032Z,21.40
2018-09-03T16:47:19.871Z,21.30
2018-09-03T16:49:53.641Z,21.20
2018-09-03T16:55:26.999Z,21.20
2018-09-03T16:58:05.847Z,21.20
2018-09-03T17:00:40.363Z,21.20
2018-09-03T17:03:16.338Z,21.20
2018-09-03T17:05:50.468Z,21.20
2018-09-03T17:08:24.293Z,21.20
2018-09-03T17:10:58.036Z,21.20
2018-09-03T17:13:31.841Z,21.10
2018-09-03T17:25:05.621Z,20.80
2018-09-03T17:27:40.358Z,20.80
2018-09-03T17:32:58.296Z,20.70
2018-09-03T17:35:31.928Z,20.60
2018-09-03T17:38:05.614Z,20.60
2018-09-03T17:43:39.098Z,20.40
2018-09-03T17:46:12.868Z,20.30
2018-09-03T17:48:46.616Z,20.30
2018-09-03T17:54:19.470Z,20.20
2018-09-03T17:56:53.284Z,20.00
2018-09-03T17:59:27.007Z,19.90
2018-09-03T18:05:00.636Z,19.70
2018-09-03T18:07:35.154Z,19.50
2018-09-03T18:13:08.606Z,19.40
2018-09-03T18:15:42.330Z,19.40
2018-09-03T18:18:16.053Z,19.40
2018-09-03T18:23:48.903Z,19.30
2018-09-03T18:26:22.589Z,19.30
2018-09-03T18:28:56.291Z,19.20
2018-09-03T18:31:30.900Z,19.10
2018-09-03T18:34:04.817Z,19.10
2018-09-03T18:36:38.743Z,19.10
2018-09-03T18:39:12.418Z,19.10
2018-09-03T18:41:46.235Z,19.10
2018-09-03T18:44:19.895Z,19.10
2018-09-03T18:46:53.719Z,19.10
2018-09-03T18:49:27.661Z,19.00
2018-09-03T18:52:01.696Z,19.00
2018-09-03T18:54:35.439Z,19.00
2018-09-03T18:57:09.213Z,19.00
2018-09-03T18:59:43.005Z,19.00
2018-09-03T19:05:16.856Z,19.00
2018-09-03T19:07:50.726Z,19.00
2018-09-03T19:10:24.495Z,19.00
2018-09-03T19:13:13.536Z,19.10
2018-09-03T19:15:47.128Z,19.00
2018-09-03T19:18:21.772Z,19.00
2018-09-03T19:20:55.564Z,19.00
2018-09-03T19:23:29.429Z,19.00
2018-09-03T19:26:03.043Z,19.00
2018-09-03T19:28:36.856Z,19.00
2018-09-03T19:31:10.587Z,18.90
2018-09-03T19:33:44.189Z,18.90
2018-09-03T19:36:18.697Z,18.80
2018-09-03T19:38:52.573Z,18.80
2018-09-03T19:44:25.512Z,18.70
2018-09-03T19:46:59.258Z,18.60
2018-09-03T19:49:35.144Z,18.60
2018-09-03T19:52:09.955Z,18.50
2018-09-03T19:54:43.548Z,18.50
2018-09-03T19:57:17.476Z,18.50
2018-09-03T19:59:51.224Z,18.50
2018-09-03T20:02:39.584Z,18.50
2018-09-03T20:05:14.065Z,18.50
2018-09-03T20:07:47.852Z,18.40
2018-09-03T20:10:21.545Z,18.40
2018-09-03T20:12:55.325Z,18.40
2018-09-03T20:15:35.647Z,18.40
2018-09-03T20:21:08.720Z,18.30
2018-09-03T20:26:42.396Z,18.30
2018-09-03T20:29:16.176Z,18.20
2018-09-03T20:31:49.951Z,18.20
2018-09-03T20:34:23.705Z,18.20
2018-09-03T20:36:57.539Z,18.20
2018-09-03T20:45:31.974Z,18.20
2018-09-03T20:51:04.478Z,18.10
2018-09-03T20:53:38.263Z,18.10
2018-09-03T20:56:12.746Z,18.10
2018-09-03T20:58:46.630Z,18.00
2018-09-03T21:01:20.509Z,18.00
2018-09-03T21:03:54.368Z,18.00
2018-09-03T21:06:28.986Z,18.10
2018-09-03T21:15:01.811Z,18.10
2018-09-03T21:17:35.571Z,18.10
2018-09-03T21:23:08.802Z,18.00
2018-09-03T21:25:42.585Z,18.00
2018-09-03T21:34:15.825Z,17.90
2018-09-03T21:36:49.637Z,17.90
2018-09-03T21:42:23.845Z,17.70
2018-09-03T21:44:57.711Z,17.70
2018-09-03T21:50:32.101Z,17.60
2018-09-03T21:53:05.831Z,17.50
2018-09-03T21:55:40.330Z,17.50
2018-09-03T22:01:14.174Z,17.40
2018-09-03T22:06:46.960Z,17.40
2018-09-03T22:09:20.672Z,17.30
2018-09-03T22:11:54.536Z,17.20
2018-09-03T22:14:28.361Z,17.10
2018-09-03T22:17:06.351Z,17.00
2018-09-03T22:22:39.917Z,16.90
2018-09-03T22:25:13.617Z,16.90
2018-09-03T22:27:47.370Z,16.90
2018-09-03T22:30:21.935Z,16.80
2018-09-03T22:32:55.696Z,16.80
2018-09-03T22:35:37.267Z,16.70
2018-09-03T22:38:11.167Z,16.70
2018-09-03T22:40:45.814Z,16.60
2018-09-03T22:43:19.732Z,16.60
2018-09-03T22:45:53.542Z,16.50
2018-09-03T22:54:26.885Z,16.40
2018-09-03T22:57:00.715Z,16.40
2018-09-03T22:59:34.424Z,16.30
2018-09-03T23:05:07.560Z,16.30
2018-09-03T23:13:40.280Z,16.30
2018-09-03T23:16:14.073Z,16.30
2018-09-03T23:24:46.747Z,16.20
2018-09-03T23:27:20.520Z,16.10
2018-09-03T23:35:53.020Z,16.20
2018-09-03T23:38:27.516Z,16.10
2018-09-03T23:41:01.305Z,16.10
2018-09-03T23:46:34.882Z,16.20
2018-09-03T23:52:08.287Z,16.20
2018-09-03T23:54:42.084Z,16.30
2018-09-03T23:57:16.723Z,16.20
2018-09-03T23:59:50.575Z,16.20
